메인 페이지
METAR-TAF:

METAR-TAF

공항 :

산투스 두몬트 공항

리우데자네이루, 리우데자네이루, 브라질

위도: 22-54S, 경도: 043-10W, 고도: 3m

현재 날씨관측

예보는 5 시간 33분 전, 02:00시(UTC)에 발표되었습니다.
5kt
온도 20°C
습도 88%
기압 1024 hPa
시정: 8000m
고도 1400ft 상공 구름 보통
고도 2500ft 상공 구름 많음
고도 4000ft 상공 흐림
약한비

METAR: SBRJ 230200Z 10005KT 8000 -RA SCT014 BKN025 OVC040 20/18 Q1024

시각: 04:33 (07:33 UTC)

예보

예보는 3 시간 48분 전, 03:45시(UTC)에 발표되었습니다.
예보 대상 시간: 23일 06시부터 23일 18시까지 (UTC)
동남동10kt
시정: 4000m
고도 1000ft 상공 구름 많음
고도 1500ft 상공 흐림
비, 박무
전환 중
23일 07시부터 23일 08시까지 (UTC)
7kt
시정: 6000m
고도 1500ft 상공 구름 많음
일시적
23일 08시부터 23일 12시까지 (UTC)
12kt
시정: 3000m
고도 700ft 상공 구름 많음
고도 3000ft 상공 흐림
이슬비, 박무
전환 중
23일 12시부터 23일 14시까지 (UTC)
시정: 7000m
고도 1700ft 상공 구름 많음

TAF: SBRJ 230345Z 2306/2318 11010KT 4000 RA BR BKN010 OVC015 TN19/2308Z TX21/2318Z BECMG 2307/2308 09007KT 6000 NSW BKN015 TEMPO 2308/2312 08012KT 3000 DZ BR BKN007 OVC030 BECMG 2312/2314 7000 BKN017 RMK PFV

4,000개 이상의 공항 관측 자료 및 예보 (METAR 및 TAF 보고).

지도상에서 검색 가능한 기상관측소가 노란 점과 빨간 점으로 표시되어 있습니다.

기상관측소 명을 보려면 표시 위로 마우스를 이동하세요.

날씨 관측과 예보를 보려면 클릭하세요.

지도 변경 : 확대하려면 엑스 표시가 있는 녹색 버튼, 축소하려면 빼기 표시가 있는 녹색 버튼, 다음 페이지의 지도를 보려면 녹색 화살표를 클릭하세요.


METAR-TAF: